createdAt,value
2019-06-01T00:01:44.623Z,102351.68
2019-06-01T00:04:13.276Z,102346.47
2019-06-01T00:06:42.822Z,102345.20
2019-06-01T00:09:11.458Z,102345.77
2019-06-01T00:11:41.152Z,102344.08
2019-06-01T00:14:09.859Z,102342.61
2019-06-01T00:16:39.814Z,102346.14
2019-06-01T00:19:08.494Z,102343.80
2019-06-01T00:21:37.027Z,102345.37
2019-06-01T00:24:05.609Z,102350.00
2019-06-01T00:26:34.129Z,102347.52
2019-06-01T00:29:02.653Z,102352.75
2019-06-01T00:31:31.156Z,102351.81
2019-06-01T00:33:59.689Z,102347.75
2019-06-01T00:36:28.253Z,102343.95
2019-06-01T00:38:56.781Z,102340.02
2019-06-01T00:41:25.365Z,102342.20
2019-06-01T00:43:53.924Z,102337.37
2019-06-01T00:46:22.473Z,102337.36
2019-06-01T00:48:52.128Z,102338.55
2019-06-01T00:51:20.770Z,102340.25
2019-06-01T00:53:49.678Z,102338.50
2019-06-01T00:56:18.487Z,102333.72
2019-06-01T00:58:47.864Z,102331.17
2019-06-01T01:01:16.463Z,102334.09
2019-06-01T01:03:46.060Z,102335.50
2019-06-01T01:06:14.656Z,102337.77
2019-06-01T01:08:44.686Z,102332.78
2019-06-01T01:11:13.432Z,102334.20
2019-06-01T01:13:41.992Z,102330.66
2019-06-01T01:16:10.523Z,102335.07
2019-06-01T01:18:39.092Z,102334.52
2019-06-01T01:21:07.899Z,102334.95
2019-06-01T01:23:36.494Z,102334.05
2019-06-01T01:26:05.069Z,102331.59
2019-06-01T01:28:33.679Z,102333.72
2019-06-01T01:31:12.836Z,102340.98
2019-06-01T01:33:32.509Z,102339.10
2019-06-01T01:36:01.086Z,102336.21
2019-06-01T01:38:29.634Z,102333.44
2019-06-01T01:40:59.393Z,102336.98
2019-06-01T01:43:28.246Z,102330.78
2019-06-01T01:45:56.956Z,102334.09
2019-06-01T01:48:25.492Z,102335.05
2019-06-01T01:50:54.270Z,102335.38
2019-06-01T01:53:22.811Z,102332.50
2019-06-01T01:55:51.319Z,102337.10
2019-06-01T01:58:19.815Z,102331.41
2019-06-01T02:00:48.618Z,102336.02
2019-06-01T02:03:17.125Z,102334.83
2019-06-01T02:05:45.728Z,102334.17
2019-06-01T02:08:14.283Z,102332.37
2019-06-01T02:10:42.861Z,102336.70
2019-06-01T02:13:11.349Z,102339.67
2019-06-01T02:15:41.559Z,102335.39
2019-06-01T02:18:10.137Z,102336.43
2019-06-01T02:20:38.840Z,102333.98
2019-06-01T02:23:07.342Z,102333.39
2019-06-01T02:25:35.818Z,102334.20
2019-06-01T02:28:05.470Z,102338.43
2019-06-01T02:30:34.105Z,102333.53
2019-06-01T02:33:04.632Z,102341.74
2019-06-01T02:35:32.852Z,102338.47
2019-06-01T02:38:03.144Z,102336.23
2019-06-01T02:40:31.600Z,102337.20
2019-06-01T02:43:01.382Z,102338.95
2019-06-01T02:45:30.729Z,102339.06
2019-06-01T02:47:59.500Z,102339.33
2019-06-01T02:50:28.184Z,102341.41
2019-06-01T02:52:57.292Z,102340.29
2019-06-01T02:55:25.880Z,102337.29
2019-06-01T02:57:54.542Z,102335.33
2019-06-01T03:00:47.116Z,102339.98
2019-06-01T03:03:15.673Z,102334.23
2019-06-01T03:05:44.705Z,102332.13
2019-06-01T03:08:13.940Z,102327.89
2019-06-01T03:10:42.505Z,102327.30
2019-06-01T03:13:11.006Z,102332.84
2019-06-01T03:15:39.656Z,102328.70
2019-06-01T03:18:08.164Z,102331.02
2019-06-01T03:20:36.941Z,102338.89
2019-06-01T03:23:05.767Z,102342.10
2019-06-01T03:25:34.251Z,102347.13
2019-06-01T03:28:04.145Z,102345.89
2019-06-01T03:30:45.078Z,102344.66
2019-06-01T03:33:10.989Z,102343.89
2019-06-01T03:35:39.567Z,102347.30
2019-06-01T03:38:09.200Z,102345.17
2019-06-01T03:40:37.845Z,102342.66
2019-06-01T03:43:07.239Z,102341.53
2019-06-01T03:45:35.869Z,102350.48
2019-06-01T03:48:04.670Z,102339.14
2019-06-01T03:50:33.205Z,102343.45
2019-06-01T03:53:01.811Z,102341.77
2019-06-01T03:55:30.359Z,102337.30
2019-06-01T03:57:58.873Z,102336.50
2019-06-01T04:00:27.431Z,102332.42
2019-06-01T04:02:55.946Z,102336.16
2019-06-01T04:05:24.423Z,102338.45
2019-06-01T04:07:53.021Z,102336.70
2019-06-01T04:10:21.593Z,102337.03
2019-06-01T04:12:50.170Z,102332.78
2019-06-01T04:15:18.727Z,102336.69
2019-06-01T04:17:47.302Z,102335.45
2019-06-01T04:20:15.818Z,102338.37
2019-06-01T04:22:44.294Z,102333.68
2019-06-01T04:25:12.823Z,102337.84
2019-06-01T04:27:41.401Z,102337.90
2019-06-01T04:30:09.912Z,102338.97
2019-06-01T04:32:49.446Z,102339.84
2019-06-01T04:35:09.078Z,102341.59
2019-06-01T04:37:37.736Z,102347.83
2019-06-01T04:40:07.936Z,102346.21
2019-06-01T04:42:36.486Z,102346.41
2019-06-01T04:45:07.653Z,102350.49
2019-06-01T04:47:37.074Z,102351.94
2019-06-01T04:50:08.705Z,102348.76
2019-06-01T04:52:37.305Z,102355.78
2019-06-01T04:55:08.974Z,102352.19
2019-06-01T04:57:37.635Z,102361.23
2019-06-01T05:00:15.388Z,102359.06
2019-06-01T05:02:37.110Z,102356.70
2019-06-01T05:05:07.320Z,102359.17
2019-06-01T05:07:35.854Z,102353.33
2019-06-01T05:10:07.527Z,102357.03
2019-06-01T05:12:36.153Z,102353.28
2019-06-01T05:15:07.989Z,102348.73
2019-06-01T05:17:36.522Z,102344.16
2019-06-01T05:20:08.364Z,102352.96
2019-06-01T05:22:36.953Z,102355.36
2019-06-01T05:25:08.999Z,102354.49
2019-06-01T05:27:37.705Z,102360.83
2019-06-01T05:30:07.344Z,102359.09
2019-06-01T05:32:35.934Z,102356.95
2019-06-01T05:35:07.595Z,102356.34
2019-06-01T05:37:36.340Z,102354.16
2019-06-01T05:40:10.691Z,102356.58
2019-06-01T05:42:39.253Z,102359.43
2019-06-01T05:45:09.110Z,102358.05
2019-06-01T05:47:37.883Z,102355.19
2019-06-01T05:50:07.539Z,102357.91
2019-06-01T05:52:36.202Z,102353.38
2019-06-01T05:55:06.459Z,102350.20
2019-06-01T05:57:34.969Z,102345.63
2019-06-01T06:00:06.260Z,102348.45
2019-06-01T06:02:34.845Z,102350.73
2019-06-01T06:05:04.441Z,102357.47
2019-06-01T06:07:32.994Z,102356.77
2019-06-01T06:10:01.602Z,102365.60
2019-06-01T06:12:30.163Z,102361.01
2019-06-01T06:14:58.677Z,102357.00
2019-06-01T06:17:27.182Z,102358.58
2019-06-01T06:19:55.707Z,102361.06
2019-06-01T06:22:24.227Z,102367.23
2019-06-01T06:24:52.865Z,102363.64
2019-06-01T06:27:21.361Z,102360.20
2019-06-01T06:29:49.870Z,102359.59
2019-06-01T06:32:19.226Z,102363.41
2019-06-01T06:34:47.826Z,102356.19
2019-06-01T06:37:16.568Z,102362.13
2019-06-01T06:39:46.222Z,102366.36
2019-06-01T06:42:14.765Z,102361.72
2019-06-01T06:44:43.269Z,102366.22
2019-06-01T06:47:11.876Z,102364.98
2019-06-01T06:49:40.466Z,102365.44
2019-06-01T06:52:09.076Z,102364.81
2019-06-01T06:54:37.692Z,102359.78
2019-06-01T06:57:06.232Z,102363.23
2019-06-01T06:59:34.808Z,102363.85
2019-06-01T07:02:03.365Z,102347.80
2019-06-01T07:04:31.866Z,102349.02
2019-06-01T07:07:00.337Z,102352.73
2019-06-01T07:09:28.961Z,102353.62
2019-06-01T07:11:57.519Z,102352.49
2019-06-01T07:14:26.060Z,102344.11
2019-06-01T07:16:54.681Z,102347.09
2019-06-01T07:19:23.728Z,102351.33
2019-06-01T07:21:52.333Z,102351.25
2019-06-01T07:24:21.776Z,102352.94
2019-06-01T07:26:50.295Z,102361.41
2019-06-01T07:29:19.954Z,102363.48
2019-06-01T07:31:48.555Z,102369.47
2019-06-01T07:34:30.997Z,102365.19
2019-06-01T07:36:47.287Z,102361.54
2019-06-01T07:39:15.851Z,102362.05
2019-06-01T07:41:44.362Z,102365.27
2019-06-01T07:44:12.920Z,102365.98
2019-06-01T07:46:41.572Z,102363.66
2019-06-01T07:49:10.050Z,102363.25
2019-06-01T07:51:38.524Z,102359.28
2019-06-01T07:54:07.050Z,102355.28
2019-06-01T07:56:35.525Z,102361.42
2019-06-01T07:59:04.053Z,102358.66
2019-06-01T08:01:32.969Z,102357.35
2019-06-01T08:04:01.657Z,102358.02
2019-06-01T08:06:32.501Z,102361.80
2019-06-01T08:09:00.467Z,102363.66
2019-06-01T08:11:32.427Z,102362.97
2019-06-01T08:13:59.314Z,102360.26
2019-06-01T08:16:27.965Z,102362.05
2019-06-01T08:18:56.512Z,102358.94
2019-06-01T08:21:26.035Z,102356.70
2019-06-01T08:23:54.673Z,102354.98
2019-06-01T08:26:24.429Z,102361.23
2019-06-01T08:28:52.995Z,102354.09
2019-06-01T08:31:22.552Z,102353.53
2019-06-01T08:33:51.247Z,102349.73
2019-06-01T08:36:19.840Z,102350.55
2019-06-01T08:38:48.427Z,102346.91
2019-06-01T08:41:16.910Z,102344.83
2019-06-01T08:43:45.460Z,102339.41
2019-06-01T08:46:14.001Z,102345.98
2019-06-01T08:48:42.489Z,102344.64
2019-06-01T08:51:11.423Z,102340.46
2019-06-01T08:53:39.977Z,102347.53
2019-06-01T08:56:08.575Z,102340.33
2019-06-01T08:58:37.201Z,102333.81
2019-06-01T09:01:05.749Z,102320.23
2019-06-01T09:03:39.935Z,102320.34
2019-06-01T09:06:04.578Z,102316.69
2019-06-01T09:08:33.306Z,102317.31
2019-06-01T09:11:01.833Z,102313.22
2019-06-01T09:13:31.278Z,102316.47
2019-06-01T09:15:59.893Z,102316.73
2019-06-01T09:18:29.824Z,102322.72
2019-06-01T09:20:58.428Z,102311.91
2019-06-01T09:23:27.597Z,102308.37
2019-06-01T09:25:56.178Z,102310.08
2019-06-01T09:28:25.683Z,102317.65
2019-06-01T09:30:54.267Z,102316.33
2019-06-01T09:33:22.817Z,102314.48
2019-06-01T09:35:55.807Z,102311.37
2019-06-01T09:38:21.617Z,102311.23
2019-06-01T09:40:50.203Z,102309.17
2019-06-01T09:43:18.828Z,102305.95
2019-06-01T09:45:47.341Z,102302.49
2019-06-01T09:48:15.914Z,102299.92
2019-06-01T09:50:44.485Z,102298.59
2019-06-01T09:53:12.994Z,102292.67
2019-06-01T09:55:41.653Z,102291.26
2019-06-01T09:58:10.231Z,102293.03
2019-06-01T10:00:43.028Z,102292.19
2019-06-01T10:03:09.036Z,102292.62
2019-06-01T10:05:38.581Z,102294.66
2019-06-01T10:08:07.182Z,102304.05
2019-06-01T10:10:36.023Z,102294.55
2019-06-01T10:13:07.640Z,102292.39
2019-06-01T10:15:34.875Z,102295.15
2019-06-01T10:18:03.491Z,102291.25
2019-06-01T10:20:33.200Z,102297.52
2019-06-01T10:23:01.858Z,102291.84
2019-06-01T10:25:30.463Z,102288.88
2019-06-01T10:27:59.006Z,102291.09
2019-06-01T10:30:27.509Z,102289.70
2019-06-01T10:32:56.103Z,102284.95
2019-06-01T10:35:24.585Z,102290.32
2019-06-01T10:37:53.118Z,102283.58
2019-06-01T10:40:21.690Z,102285.42
2019-06-01T10:42:50.278Z,102286.64
2019-06-01T10:45:18.848Z,102278.63
2019-06-01T10:47:47.447Z,102277.81
2019-06-01T10:50:17.520Z,102272.26
2019-06-01T10:52:46.268Z,102269.31
2019-06-01T10:55:14.847Z,102268.16
2019-06-01T10:57:43.409Z,102270.16
2019-06-01T11:00:12.369Z,102269.70
2019-06-01T11:02:40.989Z,102267.44
2019-06-01T11:05:09.581Z,102263.44
2019-06-01T11:07:39.099Z,102251.99
2019-06-01T11:10:08.391Z,102249.91
2019-06-01T11:12:36.980Z,102246.22
2019-06-01T11:15:06.192Z,102246.06
2019-06-01T11:17:34.932Z,102241.53
2019-06-01T11:20:05.099Z,102237.64
2019-06-01T11:22:33.587Z,102238.42
2019-06-01T11:25:02.171Z,102233.15
2019-06-01T11:27:30.709Z,102238.31
2019-06-01T11:29:59.200Z,102237.61
2019-06-01T11:32:27.939Z,102239.53
2019-06-01T11:34:56.475Z,102232.43
2019-06-01T11:37:25.020Z,102234.02
2019-06-01T11:39:53.674Z,102232.63
2019-06-01T11:42:22.229Z,102232.42
2019-06-01T11:44:50.803Z,102222.38
2019-06-01T11:47:19.379Z,102224.06
2019-06-01T11:49:47.914Z,102211.52
2019-06-01T11:52:16.398Z,102213.39
2019-06-01T11:54:45.483Z,102207.97
2019-06-01T11:57:14.210Z,102204.30
2019-06-01T11:59:43.577Z,102203.69
2019-06-01T12:02:12.379Z,102195.02
2019-06-01T12:04:41.951Z,102195.09
2019-06-01T12:07:17.430Z,102192.58
2019-06-01T12:09:41.814Z,102192.22
2019-06-01T12:12:10.427Z,102184.60
2019-06-01T12:14:40.248Z,102179.59
2019-06-01T12:17:08.890Z,102183.54
2019-06-01T12:19:38.519Z,102177.09
2019-06-01T12:22:07.261Z,102181.23
2019-06-01T12:24:36.871Z,102172.76
2019-06-01T12:27:05.761Z,102160.89
2019-06-01T12:29:34.358Z,102160.85
2019-06-01T12:32:02.952Z,102159.91
2019-06-01T12:34:31.550Z,102157.70
2019-06-01T12:37:00.133Z,102156.61
2019-06-01T12:39:28.686Z,102144.10
2019-06-01T12:41:57.293Z,102146.36
2019-06-01T12:44:26.144Z,102135.73
2019-06-01T12:46:54.706Z,102132.05
2019-06-01T12:49:23.310Z,102141.73
2019-06-01T12:51:53.041Z,102131.90
2019-06-01T12:54:21.923Z,102135.11
2019-06-01T12:56:50.428Z,102136.23
2019-06-01T12:59:19.097Z,102126.91
2019-06-01T13:01:47.835Z,102126.56
2019-06-01T13:04:16.465Z,102113.11
2019-06-01T13:06:48.906Z,102113.98
2019-06-01T13:09:15.299Z,102105.86
2019-06-01T13:11:45.141Z,102103.91
2019-06-01T13:14:13.810Z,102102.68
2019-06-01T13:16:47.319Z,102104.33
2019-06-01T13:19:12.565Z,102098.93
2019-06-01T13:21:41.407Z,102099.95
2019-06-01T13:24:10.149Z,102100.16
2019-06-01T13:26:38.640Z,102096.13
2019-06-01T13:29:07.143Z,102101.89
2019-06-01T13:31:35.759Z,102097.02
2019-06-01T13:34:04.256Z,102097.39
2019-06-01T13:36:32.821Z,102088.78
2019-06-01T13:39:01.423Z,102091.56
2019-06-01T13:41:29.986Z,102093.11
2019-06-01T13:43:58.605Z,102096.95
2019-06-01T13:46:27.214Z,102087.45
2019-06-01T13:48:55.730Z,102084.61
2019-06-01T13:51:24.217Z,102082.18
2019-06-01T13:53:52.974Z,102085.98
2019-06-01T13:56:21.627Z,102078.47
2019-06-01T13:58:50.385Z,102071.35
2019-06-01T14:01:18.913Z,102076.08
2019-06-01T14:03:47.487Z,102074.90
2019-06-01T14:06:16.033Z,102068.83
2019-06-01T14:08:44.990Z,102065.48
2019-06-01T14:11:13.628Z,102061.45
2019-06-01T14:13:42.214Z,102057.80
2019-06-01T14:16:10.788Z,102056.12
2019-06-01T14:18:39.423Z,102051.71
2019-06-01T14:21:08.124Z,102048.83
2019-06-01T14:23:36.662Z,102038.31
2019-06-01T14:26:05.364Z,102040.58
2019-06-01T14:28:33.973Z,102041.64
2019-06-01T14:31:02.523Z,102041.00
2019-06-01T14:33:31.253Z,102034.82
2019-06-01T14:35:59.770Z,102036.19
2019-06-01T14:38:45.674Z,102038.98
2019-06-01T14:40:58.698Z,102036.22
2019-06-01T14:43:27.298Z,102030.69
2019-06-01T14:45:56.005Z,102033.48
2019-06-01T14:48:24.576Z,102033.02
2019-06-01T14:50:53.814Z,102029.95
2019-06-01T14:53:22.561Z,102023.77
2019-06-01T14:55:51.708Z,102022.45
2019-06-01T14:58:20.338Z,102020.64
2019-06-01T15:00:50.234Z,102021.64
2019-06-01T15:03:18.912Z,102016.59
2019-06-01T15:05:48.161Z,102009.14
2019-06-01T15:08:16.789Z,102004.95
2019-06-01T15:10:45.423Z,102013.27
2019-06-01T15:13:14.005Z,102010.56
2019-06-01T15:15:42.490Z,102010.80
2019-06-01T15:18:11.233Z,102006.30
2019-06-01T15:20:39.771Z,102006.94
2019-06-01T15:23:08.262Z,101996.30
2019-06-01T15:25:36.861Z,101993.50
2019-06-01T15:28:05.450Z,101991.61
2019-06-01T15:30:34.133Z,102001.25
2019-06-01T15:33:03.373Z,102000.20
2019-06-01T15:35:32.043Z,101996.04
2019-06-01T15:38:02.768Z,101993.95
2019-06-01T15:40:30.912Z,101985.72
2019-06-01T15:42:59.507Z,101982.59
2019-06-01T15:45:28.097Z,101975.73
2019-06-01T15:47:57.804Z,101971.44
2019-06-01T15:50:26.489Z,101971.95
2019-06-01T15:52:55.219Z,101970.08
2019-06-01T15:55:23.767Z,101968.80
2019-06-01T15:57:52.375Z,101964.58
2019-06-01T16:00:22.590Z,101959.04
2019-06-01T16:02:51.223Z,101954.77
2019-06-01T16:05:19.804Z,101954.05
2019-06-01T16:07:48.344Z,101948.43
2019-06-01T16:10:16.874Z,101943.64
2019-06-01T16:12:45.409Z,101941.86
2019-06-01T16:15:14.063Z,101945.70
2019-06-01T16:17:42.559Z,101948.81
2019-06-01T16:20:11.087Z,101949.59
2019-06-01T16:22:39.649Z,101941.02
2019-06-01T16:25:08.190Z,101945.34
2019-06-01T16:27:37.162Z,101946.10
2019-06-01T16:30:08.508Z,101942.86
2019-06-01T16:32:39.576Z,101941.59
2019-06-01T16:35:07.291Z,101940.59
2019-06-01T16:37:35.794Z,101941.68
2019-06-01T16:40:10.025Z,101940.23
2019-06-01T16:42:37.123Z,101942.08
2019-06-01T16:45:06.747Z,101937.59
2019-06-01T16:47:35.364Z,101933.92
2019-06-01T16:50:07.308Z,101943.09
2019-06-01T16:52:35.809Z,101944.63
2019-06-01T16:55:07.105Z,101947.17
2019-06-01T16:57:35.801Z,101940.92
2019-06-01T17:00:07.183Z,101945.37
2019-06-01T17:02:35.878Z,101948.18
2019-06-01T17:05:05.335Z,101951.68
2019-06-01T17:07:33.966Z,101950.15
2019-06-01T17:10:19.506Z,101947.29
2019-06-01T17:12:32.660Z,101945.04
2019-06-01T17:15:01.183Z,101939.58
2019-06-01T17:17:29.836Z,101946.47
2019-06-01T17:19:59.016Z,101946.16
2019-06-01T17:22:27.598Z,101939.67
2019-06-01T17:24:56.134Z,101946.00
2019-06-01T17:27:24.682Z,101944.14
2019-06-01T17:29:53.305Z,101940.75
2019-06-01T17:32:24.493Z,101941.69
2019-06-01T17:34:52.074Z,101938.26
2019-06-01T17:37:20.733Z,101935.13
2019-06-01T17:39:49.282Z,101934.48
2019-06-01T17:42:17.819Z,101931.60
2019-06-01T17:44:46.331Z,101928.53
2019-06-01T17:47:14.907Z,101926.93
2019-06-01T17:49:43.423Z,101935.14
2019-06-01T17:52:11.974Z,101931.23
2019-06-01T17:54:40.621Z,101936.13
2019-06-01T17:57:09.300Z,101933.61
2019-06-01T17:59:37.915Z,101931.52
2019-06-01T18:02:07.710Z,101928.80
2019-06-01T18:04:36.507Z,101929.22
2019-06-01T18:07:05.750Z,101928.11
2019-06-01T18:09:34.563Z,101929.67
2019-06-01T18:12:03.939Z,101920.39
2019-06-01T18:14:32.786Z,101922.86
2019-06-01T18:17:02.116Z,101919.27
2019-06-01T18:19:30.660Z,101922.32
2019-06-01T18:21:59.241Z,101925.33
2019-06-01T18:24:27.789Z,101925.67
2019-06-01T18:26:56.411Z,101925.34
2019-06-01T18:29:25.301Z,101923.78
2019-06-01T18:31:53.977Z,101925.74
2019-06-01T18:34:22.571Z,101920.68
2019-06-01T18:36:51.135Z,101922.58
2019-06-01T18:39:20.483Z,101924.63
2019-06-01T18:41:49.022Z,101918.30
2019-06-01T18:44:17.836Z,101914.81
2019-06-01T18:46:46.639Z,101916.45
2019-06-01T18:49:18.110Z,101918.66
2019-06-01T18:51:45.851Z,101914.30
2019-06-01T18:54:15.167Z,101911.97
2019-06-01T18:56:43.714Z,101912.42
2019-06-01T18:59:12.799Z,101912.42
2019-06-01T19:01:41.894Z,101908.81
2019-06-01T19:04:11.844Z,101907.65
2019-06-01T19:06:41.111Z,101908.53
2019-06-01T19:09:13.675Z,101904.02
2019-06-01T19:11:42.958Z,101905.11
2019-06-01T19:14:11.906Z,101902.50
2019-06-01T19:16:40.508Z,101905.73
2019-06-01T19:19:12.528Z,101902.27
2019-06-01T19:21:43.163Z,101899.66
2019-06-01T19:24:12.644Z,101900.81
2019-06-01T19:26:41.336Z,101906.73
2019-06-01T19:29:12.867Z,101903.50
2019-06-01T19:31:41.587Z,101908.68
2019-06-01T19:34:10.951Z,101905.89
2019-06-01T19:36:39.618Z,101905.73
2019-06-01T19:39:09.210Z,101903.16
2019-06-01T19:41:44.621Z,101906.88
2019-06-01T19:44:09.362Z,101908.70
2019-06-01T19:46:40.473Z,101910.18
2019-06-01T19:49:10.717Z,101908.26
2019-06-01T19:51:40.539Z,101912.80
2019-06-01T19:54:10.642Z,101909.56
2019-06-01T19:56:39.880Z,101908.42
2019-06-01T19:59:10.013Z,101916.27
2019-06-01T20:01:39.033Z,101916.78
2019-06-01T20:04:14.353Z,101911.50
2019-06-01T20:06:43.128Z,101914.09
2019-06-01T20:09:12.973Z,101913.66
2019-06-01T20:11:41.737Z,101910.95
2019-06-01T20:14:10.789Z,101908.83
2019-06-01T20:16:39.982Z,101914.00
2019-06-01T20:19:11.367Z,101914.83
2019-06-01T20:21:39.509Z,101911.02
2019-06-01T20:24:08.092Z,101909.86
2019-06-01T20:26:44.569Z,101904.04
2019-06-01T20:29:07.829Z,101904.36
2019-06-01T20:31:36.958Z,101900.87
2019-06-01T20:34:05.678Z,101900.34
2019-06-01T20:36:34.841Z,101895.18
2019-06-01T20:39:04.706Z,101894.98
2019-06-01T20:41:33.596Z,101899.16
2019-06-01T20:44:02.209Z,101896.62
2019-06-01T20:46:31.381Z,101896.14
2019-06-01T20:49:01.070Z,101895.32
2019-06-01T20:51:32.641Z,101897.27
2019-06-01T20:54:01.868Z,101899.67
2019-06-01T20:56:30.411Z,101896.93
2019-06-01T20:58:58.937Z,101898.25
2019-06-01T21:01:27.558Z,101902.61
2019-06-01T21:03:56.248Z,101897.67
2019-06-01T21:06:24.784Z,101893.27
2019-06-01T21:08:53.473Z,101894.87
2019-06-01T21:11:22.427Z,101897.67
2019-06-01T21:13:51.262Z,101898.28
2019-06-01T21:16:20.305Z,101893.47
2019-06-01T21:18:49.521Z,101889.34
2019-06-01T21:21:18.307Z,101887.13
2019-06-01T21:23:46.828Z,101886.88
2019-06-01T21:26:16.715Z,101881.52
2019-06-01T21:28:45.409Z,101887.34
2019-06-01T21:31:14.949Z,101879.14
2019-06-01T21:33:43.596Z,101883.14
2019-06-01T21:36:12.137Z,101880.53
2019-06-01T21:38:40.737Z,101878.84
2019-06-01T21:41:09.216Z,101878.13
2019-06-01T21:43:38.262Z,101877.13
2019-06-01T21:46:06.853Z,101875.59
2019-06-01T21:48:35.331Z,101874.33
2019-06-01T21:51:03.974Z,101875.55
2019-06-01T21:53:32.779Z,101871.31
2019-06-01T21:56:01.262Z,101870.16
2019-06-01T21:58:29.939Z,101868.66
2019-06-01T22:00:58.581Z,101870.44
2019-06-01T22:03:27.405Z,101866.44
2019-06-01T22:05:56.121Z,101863.28
2019-06-01T22:08:25.345Z,101860.63
2019-06-01T22:10:54.037Z,101857.42
2019-06-01T22:13:25.345Z,101859.91
2019-06-01T22:15:53.023Z,101857.06
2019-06-01T22:18:21.654Z,101859.28
2019-06-01T22:20:50.205Z,101853.06
2019-06-01T22:23:19.705Z,101846.28
2019-06-01T22:25:48.264Z,101848.02
2019-06-01T22:28:18.067Z,101847.98
2019-06-01T22:30:46.636Z,101847.00
2019-06-01T22:33:15.309Z,101840.25
2019-06-01T22:35:43.796Z,101837.70
2019-06-01T22:38:12.305Z,101841.29
2019-06-01T22:40:40.828Z,101834.08
2019-06-01T22:43:09.306Z,101831.84
2019-06-01T22:45:37.789Z,101831.27
2019-06-01T22:48:06.378Z,101827.86
2019-06-01T22:50:34.924Z,101824.69
2019-06-01T22:53:03.396Z,101823.72
2019-06-01T22:55:32.591Z,101826.48
2019-06-01T22:58:01.173Z,101824.11
2019-06-01T23:00:29.891Z,101819.12
2019-06-01T23:02:58.478Z,101817.58
2019-06-01T23:05:27.078Z,101813.51
2019-06-01T23:07:55.697Z,101809.28
2019-06-01T23:10:29.571Z,101809.56
2019-06-01T23:12:54.530Z,101806.87
2019-06-01T23:15:23.632Z,101800.17
2019-06-01T23:17:52.207Z,101802.16
2019-06-01T23:20:21.726Z,101799.81
2019-06-01T23:22:50.291Z,101800.28
2019-06-01T23:25:18.793Z,101797.09
2019-06-01T23:27:47.277Z,101794.80
2019-06-01T23:30:15.819Z,101797.31
2019-06-01T23:32:44.294Z,101792.49
2019-06-01T23:35:12.790Z,101795.10
2019-06-01T23:37:41.318Z,101795.74
2019-06-01T23:40:09.814Z,101796.15
2019-06-01T23:42:38.399Z,101794.74
2019-06-01T23:45:07.365Z,101790.41
2019-06-01T23:47:35.873Z,101782.05
2019-06-01T23:50:05.134Z,101776.34
2019-06-01T23:52:33.872Z,101775.56
2019-06-01T23:55:02.438Z,101771.22
2019-06-01T23:57:32.045Z,101767.06
